createdAt,value
2018-01-21T00:00:51.235Z,91.14
2018-01-21T00:01:53.239Z,91.29
2018-01-21T00:02:55.169Z,91.47
2018-01-21T00:04:07.135Z,91.03
2018-01-21T00:05:10.861Z,90.59
2018-01-21T00:06:13.392Z,90.37
2018-01-21T00:07:15.347Z,90.82
2018-01-21T00:08:17.256Z,91.71
2018-01-21T00:09:19.291Z,92.13
2018-01-21T00:10:22.196Z,91.92
2018-01-21T00:11:24.968Z,91.69
2018-01-21T00:12:26.908Z,91.59
2018-01-21T00:13:28.819Z,91.33
2018-01-21T00:14:30.743Z,91.43
2018-01-21T00:15:32.773Z,91.40
2018-01-21T00:16:34.760Z,91.73
2018-01-21T00:17:37.768Z,92.14
2018-01-21T00:18:40.665Z,92.32
2018-01-21T00:19:42.695Z,92.10
2018-01-21T00:20:44.836Z,91.72
2018-01-21T00:21:46.767Z,91.27
2018-01-21T00:22:57.020Z,91.76
2018-01-21T00:23:59.032Z,91.65
2018-01-21T00:25:01.306Z,92.11
2018-01-21T00:26:03.248Z,91.97
2018-01-21T00:27:07.333Z,91.48
2018-01-21T00:28:09.256Z,91.02
2018-01-21T00:29:11.261Z,90.79
2018-01-21T00:30:13.197Z,90.74
2018-01-21T00:31:15.272Z,89.85
2018-01-21T00:32:17.263Z,89.46
2018-01-21T00:33:19.171Z,90.06
2018-01-21T00:34:21.245Z,90.24
2018-01-21T00:35:23.180Z,90.89
2018-01-21T00:36:25.041Z,90.88
2018-01-21T00:37:26.964Z,90.98
2018-01-21T00:38:34.931Z,90.90
2018-01-21T00:39:36.828Z,91.91
2018-01-21T00:40:38.736Z,92.30
2018-01-21T00:41:41.690Z,92.41
2018-01-21T00:42:43.688Z,92.42
2018-01-21T00:43:50.189Z,91.89
2018-01-21T00:44:53.817Z,91.60
2018-01-21T00:45:55.880Z,91.40
2018-01-21T00:46:57.872Z,91.61
2018-01-21T00:47:59.812Z,92.23
2018-01-21T00:49:02.305Z,92.54
2018-01-21T00:50:04.418Z,92.58
2018-01-21T00:51:07.030Z,91.96
2018-01-21T00:52:08.930Z,91.95
2018-01-21T00:53:10.864Z,91.92
2018-01-21T00:54:13.684Z,91.43
2018-01-21T00:55:15.752Z,91.69
2018-01-21T00:56:17.687Z,91.72
2018-01-21T00:57:19.655Z,92.34
2018-01-21T00:58:22.451Z,92.65
2018-01-21T00:59:24.335Z,92.28
2018-01-21T01:00:26.352Z,91.59
2018-01-21T01:01:28.409Z,91.26
2018-01-21T01:02:30.376Z,91.21
2018-01-21T01:03:33.011Z,90.98
2018-01-21T01:04:35.611Z,91.50
2018-01-21T01:05:38.450Z,91.47
2018-01-21T01:06:40.377Z,91.36
2018-01-21T01:07:42.337Z,91.17
2018-01-21T01:08:44.322Z,91.12
2018-01-21T01:09:46.267Z,90.91
2018-01-21T01:10:48.225Z,90.57
2018-01-21T01:11:50.134Z,91.02
2018-01-21T01:12:52.304Z,91.58
2018-01-21T01:13:54.224Z,92.07
2018-01-21T01:14:56.097Z,92.00
2018-01-21T01:15:58.100Z,91.40
2018-01-21T01:16:59.960Z,91.30
2018-01-21T01:18:01.897Z,91.22
2018-01-21T01:19:03.907Z,90.62
2018-01-21T01:20:05.998Z,90.62
2018-01-21T01:21:07.932Z,90.75
2018-01-21T01:22:09.876Z,91.01
2018-01-21T01:23:11.775Z,91.23
2018-01-21T01:24:13.664Z,91.60
2018-01-21T01:25:15.740Z,91.33
2018-01-21T01:26:17.763Z,91.23
2018-01-21T01:27:19.785Z,91.33
2018-01-21T01:28:21.691Z,91.55
2018-01-21T01:29:23.590Z,91.62
2018-01-21T01:30:25.641Z,91.81
2018-01-21T01:31:27.544Z,92.02
2018-01-21T01:32:32.569Z,91.95
2018-01-21T01:33:34.574Z,91.49
2018-01-21T01:34:36.624Z,91.24
2018-01-21T01:35:38.523Z,91.29
2018-01-21T01:36:40.461Z,91.03
2018-01-21T01:37:42.432Z,91.00
2018-01-21T01:38:44.433Z,90.91
2018-01-21T01:39:46.373Z,91.06
2018-01-21T01:40:48.304Z,91.34
2018-01-21T01:41:50.432Z,91.97
2018-01-21T01:42:52.520Z,91.33
2018-01-21T01:43:54.587Z,91.25
2018-01-21T01:44:56.574Z,91.36
2018-01-21T01:45:58.577Z,91.65
2018-01-21T01:47:00.564Z,91.54
2018-01-21T01:48:02.478Z,90.96
2018-01-21T01:49:04.472Z,91.17
2018-01-21T01:50:06.540Z,91.28
2018-01-21T01:51:09.344Z,91.41
2018-01-21T01:52:11.388Z,91.12
2018-01-21T01:53:13.304Z,91.25
2018-01-21T01:54:16.179Z,91.42
2018-01-21T01:55:18.217Z,91.61
2018-01-21T01:56:20.172Z,91.67
2018-01-21T01:57:22.084Z,91.60
2018-01-21T01:58:24.055Z,91.57
2018-01-21T01:59:25.968Z,91.44
2018-01-21T02:00:27.981Z,90.92
2018-01-21T02:01:29.924Z,91.68
2018-01-21T02:02:31.814Z,91.28
2018-01-21T02:03:33.738Z,91.61
2018-01-21T02:04:35.755Z,91.42
2018-01-21T02:05:37.742Z,91.61
2018-01-21T02:06:39.707Z,92.18
2018-01-21T02:07:41.632Z,92.18
2018-01-21T02:08:43.519Z,92.06
2018-01-21T02:09:45.445Z,92.25
2018-01-21T02:10:47.476Z,92.20
2018-01-21T02:11:49.623Z,91.78
2018-01-21T02:12:51.596Z,91.67
2018-01-21T02:13:53.520Z,91.50
2018-01-21T02:14:55.439Z,91.04
2018-01-21T02:15:57.587Z,91.09
2018-01-21T02:17:04.149Z,91.28
2018-01-21T02:18:06.111Z,91.81
2018-01-21T02:19:08.104Z,91.53
2018-01-21T02:20:10.151Z,91.23
2018-01-21T02:21:12.240Z,91.45
2018-01-21T02:22:14.128Z,91.69
2018-01-21T02:23:16.045Z,91.85
2018-01-21T02:24:18.088Z,91.48
2018-01-21T02:25:20.123Z,91.30
2018-01-21T02:26:22.096Z,91.27
2018-01-21T02:27:23.991Z,91.12
2018-01-21T02:28:25.918Z,91.49
2018-01-21T02:29:27.847Z,91.75
2018-01-21T02:30:29.861Z,92.09
2018-01-21T02:31:42.377Z,92.05
2018-01-21T02:32:44.342Z,91.53
2018-01-21T02:33:46.261Z,91.04
2018-01-21T02:34:48.331Z,90.73
2018-01-21T02:35:50.267Z,90.65
2018-01-21T02:36:52.144Z,90.52
2018-01-21T02:37:54.923Z,90.26
2018-01-21T02:38:56.814Z,89.98
2018-01-21T02:39:58.721Z,90.64
2018-01-21T02:41:00.656Z,90.49
2018-01-21T02:42:02.575Z,90.05
2018-01-21T02:43:04.756Z,89.89
2018-01-21T02:44:06.640Z,90.61
2018-01-21T02:45:08.564Z,90.70
2018-01-21T02:46:10.497Z,90.12
2018-01-21T02:47:12.545Z,90.31
2018-01-21T02:48:14.448Z,90.54
2018-01-21T02:49:16.377Z,90.58
2018-01-21T02:50:18.404Z,90.55
2018-01-21T02:51:20.313Z,90.40
2018-01-21T02:52:22.210Z,90.40
2018-01-21T02:53:24.483Z,90.33
2018-01-21T02:54:26.405Z,90.70
2018-01-21T02:55:28.479Z,90.66
2018-01-21T02:56:30.415Z,90.45
2018-01-21T02:57:32.295Z,90.59
2018-01-21T02:58:34.208Z,91.13
2018-01-21T02:59:36.160Z,91.94
2018-01-21T03:00:38.088Z,91.71
2018-01-21T03:01:40.070Z,91.82
2018-01-21T03:02:42.053Z,92.59
2018-01-21T03:03:44.135Z,93.01
2018-01-21T03:04:46.136Z,94.06
2018-01-21T03:05:48.049Z,93.91
2018-01-21T03:06:49.983Z,93.79
2018-01-21T03:07:51.844Z,93.80
2018-01-21T03:08:53.804Z,93.72
2018-01-21T03:09:55.752Z,93.59
2018-01-21T03:10:57.654Z,93.51
2018-01-21T03:11:59.721Z,93.55
2018-01-21T03:13:01.603Z,93.47
2018-01-21T03:14:03.569Z,93.52
2018-01-21T03:15:05.471Z,93.37
2018-01-21T03:16:07.440Z,93.17
2018-01-21T03:17:09.401Z,93.90
2018-01-21T03:18:11.440Z,93.90
2018-01-21T03:19:13.367Z,93.58
2018-01-21T03:20:15.452Z,94.01
2018-01-21T03:21:17.406Z,93.60
2018-01-21T03:22:19.310Z,93.99
2018-01-21T03:23:21.332Z,94.10
2018-01-21T03:24:24.439Z,93.72
2018-01-21T03:25:30.128Z,93.40
2018-01-21T03:26:32.054Z,93.55
2018-01-21T03:27:34.439Z,93.67
2018-01-21T03:28:43.370Z,93.53
2018-01-21T03:29:45.426Z,93.63
2018-01-21T03:30:48.365Z,93.72
2018-01-21T03:31:50.240Z,93.78
2018-01-21T03:32:52.132Z,94.09
2018-01-21T03:33:54.066Z,93.86
2018-01-21T03:34:56.115Z,93.87
2018-01-21T03:35:58.106Z,93.92
2018-01-21T03:37:00.034Z,93.53
2018-01-21T03:38:01.970Z,93.67
2018-01-21T03:39:09.908Z,94.38
2018-01-21T03:40:11.817Z,94.12
2018-01-21T03:41:13.855Z,94.16
2018-01-21T03:42:16.541Z,93.98
2018-01-21T03:43:18.524Z,93.83
2018-01-21T03:44:20.479Z,94.30
2018-01-21T03:45:22.492Z,93.97
2018-01-21T03:46:25.157Z,93.84
2018-01-21T03:47:27.101Z,93.93
2018-01-21T03:48:29.069Z,93.54
2018-01-21T03:49:31.071Z,93.78
2018-01-21T03:50:33.119Z,94.04
2018-01-21T03:51:35.032Z,94.28
2018-01-21T03:52:36.971Z,93.73
2018-01-21T03:53:38.922Z,93.61
2018-01-21T03:54:40.988Z,93.91
2018-01-21T03:55:43.010Z,94.06
2018-01-21T03:56:44.987Z,94.25
2018-01-21T03:57:46.879Z,94.08
2018-01-21T03:58:48.968Z,94.22
2018-01-21T03:59:50.883Z,94.13
2018-01-21T04:00:52.790Z,93.74
2018-01-21T04:01:54.696Z,93.88
2018-01-21T04:02:56.624Z,93.31
2018-01-21T04:03:58.636Z,92.83
2018-01-21T04:05:00.709Z,92.89
2018-01-21T04:06:02.642Z,92.86
2018-01-21T04:07:04.660Z,93.13
2018-01-21T04:08:06.764Z,92.79
2018-01-21T04:09:08.639Z,92.29
2018-01-21T04:10:10.541Z,92.78
2018-01-21T04:11:12.432Z,93.30
2018-01-21T04:12:14.394Z,93.58
2018-01-21T04:13:16.362Z,93.69
2018-01-21T04:14:18.301Z,93.25
2018-01-21T04:15:20.528Z,92.96
2018-01-21T04:16:22.419Z,93.15
2018-01-21T04:17:24.291Z,93.41
2018-01-21T04:18:26.296Z,93.29
2018-01-21T04:19:28.316Z,93.02
2018-01-21T04:20:30.351Z,93.26
2018-01-21T04:21:32.467Z,93.11
2018-01-21T04:22:34.506Z,92.40
2018-01-21T04:23:36.412Z,92.32
2018-01-21T04:24:38.329Z,92.36
2018-01-21T04:25:40.399Z,92.78
2018-01-21T04:26:47.699Z,92.59
2018-01-21T04:27:49.649Z,92.29
2018-01-21T04:28:51.678Z,92.26
2018-01-21T04:29:58.968Z,92.47
2018-01-21T04:31:01.773Z,93.15
2018-01-21T04:32:03.707Z,92.60
2018-01-21T04:33:05.871Z,91.81
2018-01-21T04:34:07.723Z,91.94
2018-01-21T04:35:09.749Z,92.22
2018-01-21T04:36:11.766Z,92.10
2018-01-21T04:37:13.667Z,91.58
2018-01-21T04:38:15.580Z,91.79
2018-01-21T04:39:17.463Z,92.40
2018-01-21T04:40:19.402Z,92.51
2018-01-21T04:41:21.316Z,92.37
2018-01-21T04:42:23.160Z,92.02
2018-01-21T04:43:25.136Z,92.12
2018-01-21T04:44:27.123Z,91.94
2018-01-21T04:45:29.013Z,91.94
2018-01-21T04:46:30.931Z,92.07
2018-01-21T04:47:32.947Z,92.18
2018-01-21T04:48:35.113Z,92.38
2018-01-21T04:49:37.129Z,92.65
2018-01-21T04:50:40.032Z,92.97
2018-01-21T04:51:41.918Z,93.07
2018-01-21T04:52:43.800Z,93.27
2018-01-21T04:53:45.679Z,92.78
2018-01-21T04:54:47.630Z,92.80
2018-01-21T04:55:49.664Z,93.05
2018-01-21T04:56:51.728Z,92.76
2018-01-21T04:57:53.677Z,93.34
2018-01-21T04:58:55.636Z,93.40
2018-01-21T04:59:57.500Z,93.50
2018-01-21T05:00:59.467Z,93.66
2018-01-21T05:02:01.327Z,93.67
2018-01-21T05:03:03.221Z,93.68
2018-01-21T05:04:05.421Z,93.83
2018-01-21T05:05:07.381Z,93.93
2018-01-21T05:06:09.384Z,93.98
2018-01-21T05:07:12.320Z,94.18
2018-01-21T05:08:14.280Z,94.12
2018-01-21T05:09:16.252Z,93.90
2018-01-21T05:10:18.341Z,93.75
2018-01-21T05:11:20.272Z,93.68
2018-01-21T05:12:22.180Z,93.45
2018-01-21T05:13:24.164Z,93.19
2018-01-21T05:14:26.054Z,93.25
2018-01-21T05:15:37.415Z,93.54
2018-01-21T05:16:39.385Z,93.68
2018-01-21T05:17:41.329Z,94.14
2018-01-21T05:18:45.235Z,94.32
2018-01-21T05:19:47.230Z,94.51
2018-01-21T05:20:49.284Z,94.33
2018-01-21T05:21:51.192Z,94.32
2018-01-21T05:22:53.115Z,94.27
2018-01-21T05:24:00.552Z,94.46
2018-01-21T05:25:02.503Z,94.34
2018-01-21T05:26:04.994Z,94.28
2018-01-21T05:27:07.028Z,93.99
2018-01-21T05:28:08.914Z,93.76
2018-01-21T05:29:10.850Z,93.44
2018-01-21T05:30:12.724Z,93.09
2018-01-21T05:31:14.677Z,92.89
2018-01-21T05:32:16.720Z,92.67
2018-01-21T05:33:18.628Z,92.72
2018-01-21T05:34:20.558Z,92.54
2018-01-21T05:35:29.676Z,92.58
2018-01-21T05:36:31.685Z,92.95
2018-01-21T05:37:33.771Z,93.10
2018-01-21T05:38:37.645Z,92.98
2018-01-21T05:39:39.686Z,92.62
2018-01-21T05:40:41.645Z,92.64
2018-01-21T05:41:49.764Z,92.45
2018-01-21T05:42:51.740Z,92.37
2018-01-21T05:43:53.670Z,92.41
2018-01-21T05:44:55.631Z,92.62
2018-01-21T05:45:57.527Z,92.59
2018-01-21T05:46:59.416Z,92.42
2018-01-21T05:48:01.360Z,92.57
2018-01-21T05:49:03.304Z,92.93
2018-01-21T05:50:05.523Z,92.90
2018-01-21T05:51:07.724Z,92.90
2018-01-21T05:52:09.650Z,92.96
2018-01-21T05:53:11.564Z,92.90
2018-01-21T05:54:13.686Z,93.04
2018-01-21T05:55:15.580Z,92.71
2018-01-21T05:56:17.738Z,92.87
2018-01-21T05:57:20.588Z,92.82
2018-01-21T05:58:22.656Z,92.73
2018-01-21T05:59:24.998Z,92.64
2018-01-21T06:00:27.847Z,92.68
2018-01-21T06:01:29.727Z,92.79
2018-01-21T06:02:31.639Z,92.90
2018-01-21T06:03:33.807Z,93.02
2018-01-21T06:04:36.658Z,93.30
2018-01-21T06:05:44.695Z,93.55
2018-01-21T06:06:46.604Z,93.27
2018-01-21T06:07:48.615Z,93.28
2018-01-21T06:08:50.533Z,93.31
2018-01-21T06:09:52.496Z,93.28
2018-01-21T06:10:54.477Z,93.63
2018-01-21T06:11:56.506Z,93.53
2018-01-21T06:12:58.403Z,93.22
2018-01-21T06:14:00.288Z,93.21
2018-01-21T06:15:02.244Z,93.30
2018-01-21T06:16:04.296Z,92.91
2018-01-21T06:17:06.193Z,93.30
2018-01-21T06:18:08.200Z,93.17
2018-01-21T06:19:10.166Z,93.16
2018-01-21T06:20:12.209Z,93.26
2018-01-21T06:21:14.321Z,93.40
2018-01-21T06:22:20.354Z,93.42
2018-01-21T06:23:22.279Z,93.25
2018-01-21T06:24:24.225Z,93.17
2018-01-21T06:25:26.175Z,93.14
2018-01-21T06:26:28.213Z,93.28
2018-01-21T06:27:30.148Z,93.14
2018-01-21T06:28:32.005Z,93.15
2018-01-21T06:29:33.899Z,93.33
2018-01-21T06:30:42.460Z,93.25
2018-01-21T06:31:44.583Z,93.22
2018-01-21T06:32:46.489Z,93.91
2018-01-21T06:33:48.484Z,93.87
2018-01-21T06:34:50.388Z,93.79
2018-01-21T06:35:52.353Z,93.76
2018-01-21T06:36:55.243Z,93.82
2018-01-21T06:37:57.259Z,93.65
2018-01-21T06:38:59.930Z,93.53
2018-01-21T06:40:02.452Z,93.31
2018-01-21T06:41:04.413Z,93.43
2018-01-21T06:42:06.355Z,93.15
2018-01-21T06:43:09.285Z,92.83
2018-01-21T06:44:11.795Z,92.83
2018-01-21T06:45:13.757Z,92.96
2018-01-21T06:46:15.802Z,93.18
2018-01-21T06:47:17.803Z,93.22
2018-01-21T06:48:19.706Z,93.40
2018-01-21T06:49:22.003Z,93.26
2018-01-21T06:50:24.356Z,93.45
2018-01-21T06:51:26.414Z,93.46
2018-01-21T06:52:28.365Z,93.27
2018-01-21T06:53:30.321Z,93.36
2018-01-21T06:54:32.198Z,93.27
2018-01-21T06:55:34.093Z,93.17
2018-01-21T06:56:36.156Z,93.06
2018-01-21T06:57:38.054Z,93.13
2018-01-21T06:58:39.912Z,92.88
2018-01-21T06:59:41.851Z,93.01
2018-01-21T07:00:43.732Z,92.91
2018-01-21T07:01:45.833Z,93.17
2018-01-21T07:02:47.748Z,93.31
2018-01-21T07:03:49.645Z,93.40
2018-01-21T07:04:51.520Z,93.44
2018-01-21T07:05:53.403Z,93.28
2018-01-21T07:06:55.344Z,93.38
2018-01-21T07:07:57.428Z,93.06
2018-01-21T07:08:59.605Z,93.01
2018-01-21T07:10:01.487Z,93.16
2018-01-21T07:11:03.490Z,93.28
2018-01-21T07:12:07.481Z,93.34
2018-01-21T07:13:09.425Z,93.34
2018-01-21T07:14:15.179Z,93.55
2018-01-21T07:15:17.619Z,93.42
2018-01-21T07:16:19.551Z,93.03
2018-01-21T07:17:21.513Z,92.65
2018-01-21T07:18:23.580Z,92.71
2018-01-21T07:19:25.498Z,93.09
2018-01-21T07:20:27.553Z,93.19
2018-01-21T07:21:29.593Z,93.21
2018-01-21T07:23:40.128Z,92.85
2018-01-21T07:24:42.055Z,92.97
2018-01-21T07:25:44.352Z,92.79
2018-01-21T07:26:46.692Z,92.80
2018-01-21T07:27:48.666Z,93.13
2018-01-21T07:28:50.839Z,93.31
2018-01-21T07:29:53.599Z,93.45
2018-01-21T07:30:56.345Z,93.59
2018-01-21T07:31:58.275Z,93.72
2018-01-21T07:33:00.236Z,93.94
2018-01-21T07:34:02.454Z,93.96
2018-01-21T07:35:05.141Z,93.97
2018-01-21T07:36:13.374Z,94.00
2018-01-21T07:37:15.542Z,94.06
2018-01-21T07:38:18.381Z,94.31
2018-01-21T07:39:20.462Z,94.31
2018-01-21T07:40:24.802Z,93.85
2018-01-21T07:41:26.907Z,93.78
2018-01-21T07:42:31.808Z,93.77
2018-01-21T07:43:33.901Z,93.76
2018-01-21T07:44:35.930Z,93.65
2018-01-21T07:45:39.272Z,93.62
2018-01-21T07:46:41.888Z,93.77
2018-01-21T07:47:43.890Z,93.95
2018-01-21T07:48:49.334Z,93.91
2018-01-21T07:49:52.796Z,93.69
2018-01-21T07:50:55.903Z,93.41
2018-01-21T07:51:59.884Z,93.56
2018-01-21T07:53:03.481Z,93.79
2018-01-21T07:54:08.232Z,93.81
2018-01-21T07:55:12.140Z,93.78
2018-01-21T07:56:17.317Z,93.64
2018-01-21T07:57:21.061Z,93.49
2018-01-21T07:58:25.674Z,93.68
2018-01-21T07:59:30.568Z,93.73
2018-01-21T08:00:34.035Z,93.48
2018-01-21T08:01:36.790Z,93.51
2018-01-21T08:02:39.315Z,93.45
2018-01-21T08:03:42.701Z,93.51
2018-01-21T08:04:46.089Z,93.63
2018-01-21T08:05:52.281Z,93.79
2018-01-21T08:06:54.541Z,93.85
2018-01-21T08:07:56.631Z,93.89
2018-01-21T08:08:59.823Z,93.70
2018-01-21T08:10:01.780Z,93.36
2018-01-21T08:11:04.919Z,93.42
2018-01-21T08:12:07.478Z,93.40
2018-01-21T08:13:09.689Z,93.29
2018-01-21T08:14:11.779Z,93.24
2018-01-21T08:15:13.883Z,93.29
2018-01-21T08:16:17.768Z,93.18
2018-01-21T08:17:20.011Z,93.01
2018-01-21T08:18:22.256Z,92.75
2018-01-21T08:19:24.233Z,92.87
2018-01-21T08:20:26.324Z,93.02
2018-01-21T08:21:29.622Z,92.95
2018-01-21T08:22:31.648Z,93.02
2018-01-21T08:23:34.018Z,93.04
2018-01-21T08:24:36.034Z,92.84
2018-01-21T08:25:37.933Z,92.59
2018-01-21T08:26:40.000Z,92.75
2018-01-21T08:27:42.644Z,92.71
2018-01-21T08:28:44.782Z,92.57
2018-01-21T08:29:46.804Z,92.73
2018-01-21T08:30:48.766Z,92.40
2018-01-21T08:31:50.804Z,92.49
2018-01-21T08:32:52.816Z,92.71
2018-01-21T08:34:01.146Z,92.99
2018-01-21T08:35:09.519Z,92.99
2018-01-21T08:36:17.829Z,92.84
2018-01-21T08:37:26.044Z,92.90
2018-01-21T08:38:34.059Z,92.78
2018-01-21T08:39:42.500Z,92.75
2018-01-21T08:52:51.759Z,92.83
2018-01-21T08:54:01.688Z,92.57
2018-01-21T08:55:08.828Z,92.69
2018-01-21T08:56:15.045Z,92.71
2018-01-21T08:57:21.348Z,91.93
2018-01-21T08:58:28.757Z,91.78
2018-01-21T08:59:35.820Z,92.30
2018-01-21T09:00:42.147Z,92.70
2018-01-21T09:01:48.713Z,92.32
2018-01-21T09:02:55.115Z,92.19
2018-01-21T09:04:01.333Z,92.21
2018-01-21T09:05:07.534Z,92.36
2018-01-21T09:06:13.809Z,92.35
2018-01-21T09:07:20.162Z,91.93
2018-01-21T09:08:26.305Z,91.81
2018-01-21T09:09:34.568Z,91.67
2018-01-21T09:10:40.785Z,91.43
2018-01-21T09:11:46.998Z,91.34
2018-01-21T09:12:53.179Z,91.15
2018-01-21T09:13:59.340Z,91.00
2018-01-21T09:15:05.572Z,90.91
2018-01-21T09:16:11.764Z,91.05
2018-01-21T09:17:18.056Z,91.17
2018-01-21T09:18:24.208Z,90.88
2018-01-21T09:19:30.815Z,91.06
2018-01-21T09:20:37.312Z,91.45
2018-01-21T09:21:45.005Z,91.37
2018-01-21T09:22:52.260Z,91.63
2018-01-21T09:23:58.397Z,91.75
2018-01-21T09:25:04.285Z,91.95
2018-01-21T09:26:10.623Z,91.74
2018-01-21T09:27:16.852Z,91.31
2018-01-21T09:28:23.288Z,91.11
2018-01-21T09:29:29.443Z,90.98
2018-01-21T09:30:35.719Z,91.11
2018-01-21T09:31:41.876Z,91.08
2018-01-21T09:32:48.064Z,91.20
2018-01-21T09:33:54.221Z,91.17
2018-01-21T09:35:00.380Z,90.81
2018-01-21T09:36:07.148Z,90.68
2018-01-21T09:37:13.276Z,90.57
2018-01-21T09:38:19.439Z,90.49
2018-01-21T09:39:25.554Z,90.00
2018-01-21T09:40:33.636Z,89.83
2018-01-21T09:41:40.736Z,90.24
2018-01-21T09:42:46.912Z,90.35
2018-01-21T09:43:53.166Z,90.33
2018-01-21T09:44:59.352Z,90.04
2018-01-21T09:46:05.574Z,90.11
2018-01-21T09:47:11.799Z,89.96
2018-01-21T09:48:18.074Z,90.21
2018-01-21T09:49:24.227Z,90.35
2018-01-21T09:50:30.572Z,90.91
2018-01-21T09:51:37.171Z,90.57
2018-01-21T09:52:43.343Z,90.40
2018-01-21T09:53:50.259Z,89.87
2018-01-21T09:54:56.563Z,89.66
2018-01-21T09:56:03.844Z,89.86
2018-01-21T09:57:10.055Z,89.38
2018-01-21T09:58:16.587Z,88.81
2018-01-21T09:59:23.028Z,88.54
2018-01-21T10:00:29.385Z,88.41
2018-01-21T10:01:35.549Z,88.35
2018-01-21T10:02:41.705Z,88.40
2018-01-21T10:03:47.979Z,87.83
2018-01-21T10:04:54.171Z,87.75
2018-01-21T10:06:00.319Z,87.81
2018-01-21T10:07:06.475Z,87.52
2018-01-21T10:08:12.548Z,86.79
2018-01-21T10:09:18.951Z,86.21
2018-01-21T10:10:26.078Z,85.99
2018-01-21T10:11:32.746Z,86.05
2018-01-21T10:12:40.073Z,86.13
2018-01-21T10:13:46.241Z,86.03
2018-01-21T10:14:52.403Z,86.08
2018-01-21T10:15:58.347Z,85.74
2018-01-21T10:17:05.399Z,85.49
2018-01-21T10:18:11.533Z,85.76
2018-01-21T10:19:17.745Z,85.98
2018-01-21T10:20:23.959Z,85.86
2018-01-21T10:21:30.161Z,85.42
2018-01-21T10:22:36.399Z,85.59
2018-01-21T10:23:42.642Z,86.02
2018-01-21T10:24:48.986Z,86.13
2018-01-21T10:25:55.137Z,85.79
2018-01-21T10:27:01.351Z,86.35
2018-01-21T10:28:07.568Z,85.60
2018-01-21T10:29:13.708Z,85.06
2018-01-21T10:30:19.961Z,85.12
2018-01-21T10:31:26.501Z,85.12
2018-01-21T10:32:32.769Z,85.46
2018-01-21T10:33:40.559Z,85.35
2018-01-21T10:34:46.849Z,85.04
2018-01-21T10:35:53.265Z,85.20
2018-01-21T10:36:59.393Z,84.94
2018-01-21T10:38:06.983Z,84.64
2018-01-21T10:39:13.942Z,84.37
2018-01-21T10:40:24.506Z,84.54
2018-01-21T10:41:30.419Z,84.25
2018-01-21T10:42:36.831Z,84.21
2018-01-21T10:43:43.606Z,84.22
2018-01-21T10:44:50.252Z,84.36
2018-01-21T10:45:56.600Z,84.33
2018-01-21T10:47:02.999Z,84.62
2018-01-21T10:48:09.494Z,84.61
2018-01-21T10:49:16.013Z,84.30
2018-01-21T10:50:22.343Z,84.05
2018-01-21T10:51:28.417Z,84.05
2018-01-21T10:52:34.910Z,84.49
2018-01-21T10:53:41.424Z,84.24
2018-01-21T10:54:47.781Z,83.91
2018-01-21T10:55:54.169Z,83.78
2018-01-21T10:57:00.362Z,83.80
2018-01-21T10:58:06.678Z,83.55
2018-01-21T10:59:12.867Z,83.38
2018-01-21T11:00:19.396Z,83.62
2018-01-21T11:01:25.885Z,83.16
2018-01-21T11:02:32.078Z,82.95
2018-01-21T11:03:38.480Z,83.55
2018-01-21T11:04:44.820Z,83.64
2018-01-21T11:05:51.173Z,83.91
2018-01-21T11:06:57.381Z,84.10
2018-01-21T11:08:03.567Z,83.96
2018-01-21T11:09:09.954Z,83.69
2018-01-21T11:10:16.357Z,83.63
2018-01-21T11:11:24.306Z,83.67
2018-01-21T11:12:30.788Z,83.26
2018-01-21T11:13:37.117Z,83.14
2018-01-21T11:14:43.338Z,81.78
2018-01-21T11:15:50.766Z,82.19
2018-01-21T11:16:57.609Z,82.37
2018-01-21T11:18:04.045Z,82.25
2018-01-21T11:19:10.260Z,82.12
2018-01-21T11:20:16.552Z,82.75
2018-01-21T11:21:22.712Z,83.25
2018-01-21T11:22:29.614Z,83.48
2018-01-21T11:23:36.352Z,83.91
2018-01-21T11:24:43.012Z,84.00
2018-01-21T11:25:49.244Z,84.03
2018-01-21T11:26:57.056Z,84.33
2018-01-21T11:28:03.456Z,84.08
2018-01-21T11:29:09.858Z,84.33
2018-01-21T11:30:16.509Z,84.37
2018-01-21T11:31:23.494Z,84.20
2018-01-21T11:32:31.437Z,83.73
2018-01-21T11:33:37.795Z,83.90
2018-01-21T11:34:44.528Z,83.79
2018-01-21T11:35:50.811Z,83.58
2018-01-21T11:36:57.100Z,83.88
2018-01-21T11:38:04.483Z,83.82
2018-01-21T11:39:11.043Z,83.57
2018-01-21T11:40:17.900Z,83.82
2018-01-21T11:41:25.028Z,83.70
2018-01-21T11:42:31.584Z,83.26
2018-01-21T11:43:37.843Z,83.04
2018-01-21T11:44:44.419Z,82.95
2018-01-21T11:45:50.923Z,82.88
2018-01-21T11:46:57.278Z,82.86
2018-01-21T11:48:03.936Z,82.43
2018-01-21T11:49:10.601Z,82.16
2018-01-21T11:50:16.828Z,82.41
2018-01-21T11:51:23.136Z,82.44
2018-01-21T11:52:29.795Z,82.32
2018-01-21T11:53:37.398Z,82.37
2018-01-21T11:54:44.128Z,82.14
2018-01-21T11:55:50.500Z,82.14
2018-01-21T11:56:56.811Z,81.81
2018-01-21T11:58:03.096Z,81.87
2018-01-21T11:59:09.480Z,81.95
2018-01-21T12:00:16.152Z,81.96
2018-01-21T12:01:22.651Z,81.61
2018-01-21T12:02:29.324Z,81.16
2018-01-21T12:03:35.658Z,80.93
2018-01-21T12:04:42.060Z,80.82
2018-01-21T12:05:48.347Z,80.62
2018-01-21T12:06:54.693Z,80.65
2018-01-21T12:08:01.221Z,80.65
2018-01-21T12:09:07.861Z,80.57
2018-01-21T12:10:14.352Z,80.14
2018-01-21T12:11:20.884Z,79.82
2018-01-21T12:12:27.180Z,79.89
2018-01-21T12:13:33.524Z,79.79
2018-01-21T12:14:40.178Z,79.85
2018-01-21T12:15:46.518Z,79.95
2018-01-21T12:16:52.892Z,79.77
2018-01-21T12:17:59.107Z,79.58
2018-01-21T12:19:05.073Z,79.68
2018-01-21T12:20:11.583Z,80.04
2018-01-21T12:21:17.985Z,80.13
2018-01-21T12:22:24.437Z,80.02
2018-01-21T12:23:30.841Z,80.27
2018-01-21T12:24:37.067Z,80.48
2018-01-21T12:25:43.312Z,80.50
2018-01-21T12:26:49.616Z,80.67
2018-01-21T12:27:55.824Z,80.68
2018-01-21T12:29:02.061Z,80.62
2018-01-21T12:30:09.038Z,80.36
2018-01-21T12:31:18.415Z,80.40
2018-01-21T12:32:26.299Z,80.18
2018-01-21T12:33:34.157Z,80.26
2018-01-21T12:34:42.407Z,80.49
2018-01-21T12:35:51.984Z,80.84
2018-01-21T12:36:59.245Z,80.69
2018-01-21T12:38:06.678Z,81.00
2018-01-21T12:39:15.353Z,81.38
2018-01-21T12:40:23.954Z,81.53
2018-01-21T12:41:30.688Z,81.70
2018-01-21T12:42:37.487Z,81.78
2018-01-21T12:43:44.508Z,81.60
2018-01-21T12:44:51.857Z,81.69
2018-01-21T12:45:59.212Z,82.23
2018-01-21T12:47:05.468Z,82.28
2018-01-21T12:48:11.833Z,82.64
2018-01-21T12:49:18.179Z,82.84
2018-01-21T12:50:24.410Z,83.01
2018-01-21T12:51:35.777Z,82.61
2018-01-21T12:52:43.596Z,82.79
2018-01-21T12:53:51.633Z,82.97
2018-01-21T12:54:58.098Z,83.55
2018-01-21T12:56:04.728Z,83.40
2018-01-21T12:57:12.307Z,83.43
2018-01-21T12:58:19.521Z,83.67
2018-01-21T12:59:26.773Z,83.20
2018-01-21T13:00:33.567Z,83.37
2018-01-21T13:01:40.077Z,83.70
2018-01-21T13:02:48.268Z,83.89
2018-01-21T13:03:55.876Z,83.85
2018-01-21T13:05:03.464Z,83.99
2018-01-21T13:06:09.747Z,84.15
2018-01-21T13:07:16.228Z,84.22
2018-01-21T13:08:22.556Z,84.25
2018-01-21T13:09:28.970Z,84.20
2018-01-21T13:10:35.234Z,84.10
2018-01-21T13:11:42.096Z,83.83
2018-01-21T13:12:48.496Z,83.75
2018-01-21T13:13:55.991Z,83.62
2018-01-21T13:15:03.439Z,83.58
2018-01-21T13:16:13.310Z,83.62
2018-01-21T13:17:20.155Z,83.10
2018-01-21T13:18:27.738Z,83.32
2018-01-21T13:19:35.689Z,83.25
2018-01-21T13:20:43.524Z,83.14
2018-01-21T13:21:50.164Z,82.88
2018-01-21T13:22:56.882Z,82.80
2018-01-21T13:24:03.392Z,82.82
2018-01-21T13:25:10.246Z,82.88
2018-01-21T13:26:17.368Z,82.71
2018-01-21T13:27:23.817Z,82.68
2018-01-21T13:28:30.146Z,82.68
2018-01-21T13:29:36.770Z,82.52
2018-01-21T13:30:43.017Z,82.65
2018-01-21T13:31:49.297Z,82.83
2018-01-21T13:32:55.978Z,82.66
2018-01-21T13:34:02.781Z,82.56
2018-01-21T13:35:09.093Z,82.81
2018-01-21T13:36:15.243Z,83.15
2018-01-21T13:37:21.685Z,82.94
2018-01-21T13:38:28.024Z,83.26
2018-01-21T13:39:34.353Z,82.83
2018-01-21T13:40:40.246Z,83.11
2018-01-21T13:41:46.496Z,83.02
2018-01-21T13:42:52.743Z,83.00
2018-01-21T13:43:58.937Z,82.92
2018-01-21T13:45:05.132Z,83.21
2018-01-21T13:46:11.478Z,83.47
2018-01-21T13:47:22.686Z,83.94
2018-01-21T13:48:28.910Z,84.22
2018-01-21T13:49:35.157Z,84.18
2018-01-21T13:50:41.446Z,84.43
2018-01-21T13:51:47.703Z,84.65
2018-01-21T13:52:54.194Z,84.51
2018-01-21T13:54:01.818Z,84.81
2018-01-21T13:55:08.615Z,84.39
2018-01-21T13:56:15.350Z,84.40
2018-01-21T13:57:26.274Z,84.37